sensor_id;sensor_type;location;lat;lon;timestamp;pressure;altitude;pressure_sealevel;temperature
73734;BMP280;62039;50.000;9.064;2022-11-15T00:01:22;100059.44;;;9.73
73734;BMP280;62039;50.000;9.064;2022-11-15T00:03:50;100056.00;;;9.72
73734;BMP280;62039;50.000;9.064;2022-11-15T00:06:17;100051.75;;;9.71
73734;BMP280;62039;50.000;9.064;2022-11-15T00:08:44;100051.75;;;9.71
73734;BMP280;62039;50.000;9.064;2022-11-15T00:11:11;100048.50;;;9.69
73734;BMP280;62039;50.000;9.064;2022-11-15T00:13:38;100046.88;;;9.68
73734;BMP280;62039;50.000;9.064;2022-11-15T00:16:05;100044.28;;;9.68
73734;BMP280;62039;50.000;9.064;2022-11-15T00:18:33;100048.00;;;9.66
73734;BMP280;62039;50.000;9.064;2022-11-15T00:21:03;100043.59;;;9.66
73734;BMP280;62039;50.000;9.064;2022-11-15T00:23:30;100043.94;;;9.63
73734;BMP280;62039;50.000;9.064;2022-11-15T00:25:58;100046.56;;;9.63
73734;BMP280;62039;50.000;9.064;2022-11-15T00:28:25;100048.34;;;9.63
73734;BMP280;62039;50.000;9.064;2022-11-15T00:30:52;100048.50;;;9.61
73734;BMP280;62039;50.000;9.064;2022-11-15T00:33:19;100043.75;;;9.57
73734;BMP280;62039;50.000;9.064;2022-11-15T00:35:46;100049.25;;;9.54
73734;BMP280;62039;50.000;9.064;2022-11-15T00:38:13;100045.97;;;9.52
73734;BMP280;62039;50.000;9.064;2022-11-15T00:40:40;100063.41;;;9.51
73734;BMP280;62039;50.000;9.064;2022-11-15T00:43:06;100060.03;;;9.51
73734;BMP280;62039;50.000;9.064;2022-11-15T00:45:33;100055.94;;;9.48
73734;BMP280;62039;50.000;9.064;2022-11-15T00:47:59;100055.94;;;9.48
73734;BMP280;62039;50.000;9.064;2022-11-15T00:50:26;100061.31;;;9.47
73734;BMP280;62039;50.000;9.064;2022-11-15T00:52:54;100056.22;;;9.45
73734;BMP280;62039;50.000;9.064;2022-11-15T00:55:20;100054.63;;;9.44
73734;BMP280;62039;50.000;9.064;2022-11-15T00:57:47;100049.72;;;9.41
73734;BMP280;62039;50.000;9.064;2022-11-15T01:00:14;100048.91;;;9.40
73734;BMP280;62039;50.000;9.064;2022-11-15T01:02:40;100045.00;;;9.36
73734;BMP280;62039;50.000;9.064;2022-11-15T01:05:08;100039.94;;;9.35
73734;BMP280;62039;50.000;9.064;2022-11-15T01:07:34;100037.47;;;9.33
73734;BMP280;62039;50.000;9.064;2022-11-15T01:10:03;100041.88;;;9.33
73734;BMP280;62039;50.000;9.064;2022-11-15T01:12:30;100034.38;;;9.30
73734;BMP280;62039;50.000;9.064;2022-11-15T01:14:56;100040.41;;;9.30
73734;BMP280;62039;50.000;9.064;2022-11-15T01:17:23;100037.97;;;9.29
73734;BMP280;62039;50.000;9.064;2022-11-15T01:19:50;100034.84;;;9.25
73734;BMP280;62039;50.000;9.064;2022-11-15T01:22:16;100033.03;;;9.26
73734;BMP280;62039;50.000;9.064;2022-11-15T01:24:43;100023.59;;;9.25
73734;BMP280;62039;50.000;9.064;2022-11-15T01:27:11;100028.00;;;9.24
73734;BMP280;62039;50.000;9.064;2022-11-15T01:29:37;100023.94;;;9.22
73734;BMP280;62039;50.000;9.064;2022-11-15T01:32:04;100023.25;;;9.20
73734;BMP280;62039;50.000;9.064;2022-11-15T01:34:31;100027.81;;;9.18
73734;BMP280;62039;50.000;9.064;2022-11-15T01:36:57;100027.81;;;9.18
73734;BMP280;62039;50.000;9.064;2022-11-15T01:39:24;100027.81;;;9.18
73734;BMP280;62039;50.000;9.064;2022-11-15T01:41:51;100015.78;;;9.17
73734;BMP280;62039;50.000;9.064;2022-11-15T01:44:40;100010.88;;;9.14
73734;BMP280;62039;50.000;9.064;2022-11-15T01:47:10;100005.81;;;9.12
73734;BMP280;62039;50.000;9.064;2022-11-15T01:49:41;100001.41;;;9.13
73734;BMP280;62039;50.000;9.064;2022-11-15T01:52:12;100004.03;;;9.13
73734;BMP280;62039;50.000;9.064;2022-11-15T01:54:39;100008.94;;;9.16
73734;BMP280;62039;50.000;9.064;2022-11-15T01:57:08;99999.81;;;9.20
73734;BMP280;62039;50.000;9.064;2022-11-15T01:59:39;99988.25;;;9.22
73734;BMP280;62039;50.000;9.064;2022-11-15T02:02:06;99989.72;;;9.25
73734;BMP280;62039;50.000;9.064;2022-11-15T02:04:36;99989.41;;;9.28
73734;BMP280;62039;50.000;9.064;2022-11-15T02:07:05;99984.84;;;9.30
73734;BMP280;62039;50.000;9.064;2022-11-15T02:09:32;99981.91;;;9.33
73734;BMP280;62039;50.000;9.064;2022-11-15T02:11:59;99984.22;;;9.36
73734;BMP280;62039;50.000;9.064;2022-11-15T02:14:27;99970.22;;;9.37
73734;BMP280;62039;50.000;9.064;2022-11-15T02:16:59;99970.22;;;9.37
73734;BMP280;62039;50.000;9.064;2022-11-15T02:22:37;99969.53;;;9.35
73734;BMP280;62039;50.000;9.064;2022-11-15T02:25:22;99977.38;;;9.35
73734;BMP280;62039;50.000;9.064;2022-11-15T02:28:10;99968.56;;;9.36
73734;BMP280;62039;50.000;9.064;2022-11-15T02:30:45;99961.38;;;9.38
73734;BMP280;62039;50.000;9.064;2022-11-15T02:33:23;99955.88;;;9.41
73734;BMP280;62039;50.000;9.064;2022-11-15T02:35:57;99962.72;;;9.42
73734;BMP280;62039;50.000;9.064;2022-11-15T02:38:31;99963.19;;;9.46
73734;BMP280;62039;50.000;9.064;2022-11-15T02:41:01;99957.81;;;9.47
73734;BMP280;62039;50.000;9.064;2022-11-15T02:43:33;99946.44;;;9.48
73734;BMP280;62039;50.000;9.064;2022-11-15T02:46:08;99951.63;;;9.48
73734;BMP280;62039;50.000;9.064;2022-11-15T02:48:36;99949.03;;;9.48
73734;BMP280;62039;50.000;9.064;2022-11-15T02:51:04;99943.66;;;9.50
73734;BMP280;62039;50.000;9.064;2022-11-15T02:53:30;99936.97;;;9.47
73734;BMP280;62039;50.000;9.064;2022-11-15T02:55:58;99932.09;;;9.44
73734;BMP280;62039;50.000;9.064;2022-11-15T02:58:51;99932.56;;;9.39
73734;BMP280;62039;50.000;9.064;2022-11-15T03:01:32;99926.06;;;9.35
73734;BMP280;62039;50.000;9.064;2022-11-15T03:04:07;99915.78;;;9.34
73734;BMP280;62039;50.000;9.064;2022-11-15T03:06:38;99916.09;;;9.31
73734;BMP280;62039;50.000;9.064;2022-11-15T03:09:10;99926.84;;;9.28
73734;BMP280;62039;50.000;9.064;2022-11-15T03:11:41;99914.94;;;9.25
73734;BMP280;62039;50.000;9.064;2022-11-15T03:14:18;99918.03;;;9.21
73734;BMP280;62039;50.000;9.064;2022-11-15T03:16:51;99914.28;;;9.15
73734;BMP280;62039;50.000;9.064;2022-11-15T03:19:27;99914.59;;;9.12
73734;BMP280;62039;50.000;9.064;2022-11-15T03:21:58;99916.72;;;9.09
73734;BMP280;62039;50.000;9.064;2022-11-15T03:24:28;99917.69;;;9.08
73734;BMP280;62039;50.000;9.064;2022-11-15T03:26:59;99914.28;;;9.07
73734;BMP280;62039;50.000;9.064;2022-11-15T03:29:29;99908.41;;;9.05
73734;BMP280;62039;50.000;9.064;2022-11-15T03:32:02;99916.41;;;9.03
73734;BMP280;62039;50.000;9.064;2022-11-15T03:34:32;99910.53;;;9.01
73734;BMP280;62039;50.000;9.064;2022-11-15T03:37:01;99919.47;;;8.99
73734;BMP280;62039;50.000;9.064;2022-11-15T03:39:28;99917.00;;;8.97
73734;BMP280;62039;50.000;9.064;2022-11-15T03:42:03;99915.41;;;8.96
73734;BMP280;62039;50.000;9.064;2022-11-15T03:44:38;99909.38;;;8.96
73734;BMP280;62039;50.000;9.064;2022-11-15T03:47:11;99905.28;;;8.93
73734;BMP280;62039;50.000;9.064;2022-11-15T03:49:42;99905.59;;;8.90
73734;BMP280;62039;50.000;9.064;2022-11-15T03:52:11;99905.09;;;8.87
73734;BMP280;62039;50.000;9.064;2022-11-15T03:54:48;99902.81;;;8.84
73734;BMP280;62039;50.000;9.064;2022-11-15T03:57:14;99903.00;;;8.82
73734;BMP280;62039;50.000;9.064;2022-11-15T03:59:42;99911.78;;;8.81
73734;BMP280;62039;50.000;9.064;2022-11-15T04:02:10;99895.47;;;8.79
73734;BMP280;62039;50.000;9.064;2022-11-15T04:04:36;99898.41;;;8.76
73734;BMP280;62039;50.000;9.064;2022-11-15T04:07:03;99901.19;;;8.75
73734;BMP280;62039;50.000;9.064;2022-11-15T04:09:30;99905.88;;;8.71
73734;BMP280;62039;50.000;9.064;2022-11-15T04:11:56;99896.59;;;8.69
73734;BMP280;62039;50.000;9.064;2022-11-15T04:14:23;99913.19;;;8.68
73734;BMP280;62039;50.000;9.064;2022-11-15T04:16:49;99905.69;;;8.64
73734;BMP280;62039;50.000;9.064;2022-11-15T04:19:17;99909.25;;;8.63
73734;BMP280;62039;50.000;9.064;2022-11-15T04:21:44;99906.84;;;8.62
73734;BMP280;62039;50.000;9.064;2022-11-15T04:24:10;99911.06;;;8.63
73734;BMP280;62039;50.000;9.064;2022-11-15T04:26:37;99916.44;;;8.61
73734;BMP280;62039;50.000;9.064;2022-11-15T04:29:03;99917.25;;;8.62
73734;BMP280;62039;50.000;9.064;2022-11-15T04:31:30;99904.38;;;8.60
73734;BMP280;62039;50.000;9.064;2022-11-15T04:33:57;99906.84;;;8.62
73734;BMP280;62039;50.000;9.064;2022-11-15T04:36:25;99906.50;;;8.65
73734;BMP280;62039;50.000;9.064;2022-11-15T04:38:51;99903.91;;;8.65
73734;BMP280;62039;50.000;9.064;2022-11-15T04:41:18;99898.69;;;8.65
73734;BMP280;62039;50.000;9.064;2022-11-15T04:43:44;99906.50;;;8.65
73734;BMP280;62039;50.000;9.064;2022-11-15T04:46:11;99902.25;;;8.64
73734;BMP280;62039;50.000;9.064;2022-11-15T04:48:37;99898.06;;;8.63
73734;BMP280;62039;50.000;9.064;2022-11-15T04:51:04;99903.25;;;8.63
73734;BMP280;62039;50.000;9.064;2022-11-15T04:53:32;99897.22;;;8.62
73734;BMP280;62039;50.000;9.064;2022-11-15T04:55:59;99898.34;;;8.60
73734;BMP280;62039;50.000;9.064;2022-11-15T04:58:26;99886.28;;;8.59
73734;BMP280;62039;50.000;9.064;2022-11-15T05:00:52;99888.06;;;8.58
73734;BMP280;62039;50.000;9.064;2022-11-15T05:03:19;99890.66;;;8.58
73734;BMP280;62039;50.000;9.064;2022-11-15T05:05:45;99890.03;;;8.56
73734;BMP280;62039;50.000;9.064;2022-11-15T05:08:12;99879.75;;;8.55
73734;BMP280;62039;50.000;9.064;2022-11-15T05:10:40;99881.41;;;8.56
73734;BMP280;62039;50.000;9.064;2022-11-15T05:13:06;99886.59;;;8.56
73734;BMP280;62039;50.000;9.064;2022-11-15T05:15:33;99887.41;;;8.56
73734;BMP280;62039;50.000;9.064;2022-11-15T05:18:00;99880.41;;;8.57
73734;BMP280;62039;50.000;9.064;2022-11-15T05:20:26;99877.78;;;8.57
73734;BMP280;62039;50.000;9.064;2022-11-15T05:22:53;99880.41;;;8.57
73734;BMP280;62039;50.000;9.064;2022-11-15T05:25:20;99882.22;;;8.56
73734;BMP280;62039;50.000;9.064;2022-11-15T05:27:48;99875.19;;;8.57
73734;BMP280;62039;50.000;9.064;2022-11-15T05:30:15;99879.44;;;8.58
73734;BMP280;62039;50.000;9.064;2022-11-15T05:32:42;99877.53;;;8.60
73734;BMP280;62039;50.000;9.064;2022-11-15T05:35:13;99880.94;;;8.60
73734;BMP280;62039;50.000;9.064;2022-11-15T05:37:41;99879.28;;;8.59
73734;BMP280;62039;50.000;9.064;2022-11-15T05:40:08;99875.84;;;8.59
73734;BMP280;62039;50.000;9.064;2022-11-15T05:42:35;99874.22;;;8.58
73734;BMP280;62039;50.000;9.064;2022-11-15T05:45:05;99868.88;;;8.59
73734;BMP280;62039;50.000;9.064;2022-11-15T05:47:33;99869.72;;;8.60
73734;BMP280;62039;50.000;9.064;2022-11-15T05:50:01;99862.72;;;8.60
73734;BMP280;62039;50.000;9.064;2022-11-15T05:52:31;99862.56;;;8.62
73734;BMP280;62039;50.000;9.064;2022-11-15T05:55:01;99863.53;;;8.61
73734;BMP280;62039;50.000;9.064;2022-11-15T05:57:28;99862.84;;;8.59
73734;BMP280;62039;50.000;9.064;2022-11-15T05:59:55;99863.00;;;8.57
73734;BMP280;62039;50.000;9.064;2022-11-15T06:02:23;99861.19;;;8.58
73734;BMP280;62039;50.000;9.064;2022-11-15T06:04:50;99861.19;;;8.58
73734;BMP280;62039;50.000;9.064;2022-11-15T06:07:16;99864.50;;;8.60
73734;BMP280;62039;50.000;9.064;2022-11-15T06:09:43;99869.41;;;8.63
73734;BMP280;62039;50.000;9.064;2022-11-15T06:12:09;99864.84;;;8.65
73734;BMP280;62039;50.000;9.064;2022-11-15T06:14:36;99857.84;;;8.66
73734;BMP280;62039;50.000;9.064;2022-11-15T06:17:02;99856.06;;;8.66
73734;BMP280;62039;50.000;9.064;2022-11-15T06:19:37;99853.31;;;8.68
73734;BMP280;62039;50.000;9.064;2022-11-15T06:22:04;99848.56;;;8.71
73734;BMP280;62039;50.000;9.064;2022-11-15T06:24:30;99848.94;;;8.76
73734;BMP280;62039;50.000;9.064;2022-11-15T06:26:57;99854.47;;;8.81
73734;BMP280;62039;50.000;9.064;2022-11-15T06:29:23;99858.38;;;8.85
73734;BMP280;62039;50.000;9.064;2022-11-15T06:31:50;99869.47;;;8.87
73734;BMP280;62039;50.000;9.064;2022-11-15T06:34:17;99867.53;;;8.89
73734;BMP280;62039;50.000;9.064;2022-11-15T06:36:44;99867.53;;;8.89
73734;BMP280;62039;50.000;9.064;2022-11-15T06:39:11;99876.78;;;8.92
73734;BMP280;62039;50.000;9.064;2022-11-15T06:41:38;99874.03;;;8.93
73734;BMP280;62039;50.000;9.064;2022-11-15T06:44:04;99869.47;;;8.95
73734;BMP280;62039;50.000;9.064;2022-11-15T06:46:31;99885.94;;;8.96
73734;BMP280;62039;50.000;9.064;2022-11-15T06:48:57;99885.75;;;8.97
73734;BMP280;62039;50.000;9.064;2022-11-15T06:51:24;99879.56;;;8.98
73734;BMP280;62039;50.000;9.064;2022-11-15T06:53:52;99883.00;;;8.99
73734;BMP280;62039;50.000;9.064;2022-11-15T06:56:18;99875.31;;;8.97
73734;BMP280;62039;50.000;9.064;2022-11-15T06:58:45;99880.53;;;8.97
73734;BMP280;62039;50.000;9.064;2022-11-15T07:01:12;99885.75;;;8.97
73734;BMP280;62039;50.000;9.064;2022-11-15T07:03:40;99885.75;;;8.97
73734;BMP280;62039;50.000;9.064;2022-11-15T07:06:08;99885.75;;;8.97
73734;BMP280;62039;50.000;9.064;2022-11-15T07:08:35;99895.19;;;8.98
73734;BMP280;62039;50.000;9.064;2022-11-15T07:11:06;99884.97;;;8.97
73734;BMP280;62039;50.000;9.064;2022-11-15T07:13:34;99872.41;;;8.92
73734;BMP280;62039;50.000;9.064;2022-11-15T07:16:02;99874.66;;;8.87
73734;BMP280;62039;50.000;9.064;2022-11-15T07:18:29;99880.38;;;8.83
73734;BMP280;62039;50.000;9.064;2022-11-15T07:20:55;99883.94;;;8.82
73734;BMP280;62039;50.000;9.064;2022-11-15T07:23:26;99873.69;;;8.80
73734;BMP280;62039;50.000;9.064;2022-11-15T07:25:52;99876.13;;;8.82
73734;BMP280;62039;50.000;9.064;2022-11-15T07:28:20;99882.78;;;8.84
73734;BMP280;62039;50.000;9.064;2022-11-15T07:30:47;99884.13;;;8.88
73734;BMP280;62039;50.000;9.064;2022-11-15T07:33:14;99875.97;;;8.91
73734;BMP280;62039;50.000;9.064;2022-11-15T07:35:40;99873.72;;;8.96
73734;BMP280;62039;50.000;9.064;2022-11-15T07:38:07;99872.25;;;9.02
73734;BMP280;62039;50.000;9.064;2022-11-15T07:40:33;99879.59;;;9.07
73734;BMP280;62039;50.000;9.064;2022-11-15T07:43:01;99878.13;;;9.12
73734;BMP280;62039;50.000;9.064;2022-11-15T07:45:29;99872.25;;;9.18
73734;BMP280;62039;50.000;9.064;2022-11-15T07:47:56;99871.78;;;9.23
73734;BMP280;62039;50.000;9.064;2022-11-15T07:50:23;99874.56;;;9.29
73734;BMP280;62039;50.000;9.064;2022-11-15T07:52:53;99880.09;;;9.34
73734;BMP280;62039;50.000;9.064;2022-11-15T07:55:20;99877.97;;;9.38
73734;BMP280;62039;50.000;9.064;2022-11-15T07:57:46;99872.13;;;9.44
73734;BMP280;62039;50.000;9.064;2022-11-15T08:00:14;99872.44;;;9.49
73734;BMP280;62039;50.000;9.064;2022-11-15T08:02:42;99869.34;;;9.54
73734;BMP280;62039;50.000;9.064;2022-11-15T08:05:09;99878.28;;;9.59
73734;BMP280;62039;50.000;9.064;2022-11-15T08:07:36;99871.63;;;9.65
73734;BMP280;62039;50.000;9.064;2022-11-15T08:10:03;99872.78;;;9.70
73734;BMP280;62039;50.000;9.064;2022-11-15T08:12:29;99873.09;;;9.75
73734;BMP280;62039;50.000;9.064;2022-11-15T08:14:56;99877.00;;;9.79
73734;BMP280;62039;50.000;9.064;2022-11-15T08:17:23;99867.22;;;9.81
73734;BMP280;62039;50.000;9.064;2022-11-15T08:19:51;99869.50;;;9.85
73734;BMP280;62039;50.000;9.064;2022-11-15T08:22:17;99865.75;;;9.87
73734;BMP280;62039;50.000;9.064;2022-11-15T08:24:44;99868.03;;;9.90
73734;BMP280;62039;50.000;9.064;2022-11-15T08:27:11;99864.25;;;9.93
73734;BMP280;62039;50.000;9.064;2022-11-15T08:29:37;99867.34;;;9.96
73734;BMP280;62039;50.000;9.064;2022-11-15T08:32:04;99868.81;;;9.99
73734;BMP280;62039;50.000;9.064;2022-11-15T08:34:31;99864.25;;;10.01
73734;BMP280;62039;50.000;9.064;2022-11-15T08:36:59;99864.91;;;10.03
73734;BMP280;62039;50.000;9.064;2022-11-15T08:39:25;99867.16;;;10.06
73734;BMP280;62039;50.000;9.064;2022-11-15T08:41:52;99877.28;;;10.09
73734;BMP280;62039;50.000;9.064;2022-11-15T08:44:18;99870.91;;;10.11
73734;BMP280;62039;50.000;9.064;2022-11-15T08:46:45;99866.16;;;10.15
73734;BMP280;62039;50.000;9.064;2022-11-15T08:49:11;99858.78;;;10.18
73734;BMP280;62039;50.000;9.064;2022-11-15T08:51:38;99855.03;;;10.21
73734;BMP280;62039;50.000;9.064;2022-11-15T08:54:06;99849.50;;;10.24
73734;BMP280;62039;50.000;9.064;2022-11-15T08:56:33;99856.00;;;10.28
73734;BMP280;62039;50.000;9.064;2022-11-15T08:58:59;99848.00;;;10.30
73734;BMP280;62039;50.000;9.064;2022-11-15T09:01:26;99843.25;;;10.33
73734;BMP280;62039;50.000;9.064;2022-11-15T09:03:53;99826.44;;;10.36
73734;BMP280;62039;50.000;9.064;2022-11-15T09:06:19;99832.75;;;10.41
73734;BMP280;62039;50.000;9.064;2022-11-15T09:08:46;99839.09;;;10.47
73734;BMP280;62039;50.000;9.064;2022-11-15T09:11:15;99831.75;;;10.50
73734;BMP280;62039;50.000;9.064;2022-11-15T09:13:42;99841.53;;;10.56
73734;BMP280;62039;50.000;9.064;2022-11-15T09:16:08;99837.44;;;10.62
73734;BMP280;62039;50.000;9.064;2022-11-15T09:18:35;99831.06;;;10.65
73734;BMP280;62039;50.000;9.064;2022-11-15T09:21:01;99824.50;;;10.69
73734;BMP280;62039;50.000;9.064;2022-11-15T09:23:28;99827.59;;;10.72
73734;BMP280;62039;50.000;9.064;2022-11-15T09:25:58;99822.81;;;10.76
73734;BMP280;62039;50.000;9.064;2022-11-15T09:28:27;99824.72;;;10.82
73734;BMP280;62039;50.000;9.064;2022-11-15T09:30:56;99828.28;;;10.89
73734;BMP280;62039;50.000;9.064;2022-11-15T09:33:23;99827.56;;;10.95
73734;BMP280;62039;50.000;9.064;2022-11-15T09:35:52;99819.84;;;11.02
73734;BMP280;62039;50.000;9.064;2022-11-15T09:38:19;99816.72;;;11.06
73734;BMP280;62039;50.000;9.064;2022-11-15T09:40:51;99817.00;;;11.11
73734;BMP280;62039;50.000;9.064;2022-11-15T09:43:32;99813.06;;;11.15
73734;BMP280;62039;50.000;9.064;2022-11-15T09:46:11;99821.00;;;11.22
73734;BMP280;62039;50.000;9.064;2022-11-15T09:48:51;99814.25;;;11.27
73734;BMP280;62039;50.000;9.064;2022-11-15T09:51:25;99811.13;;;11.32
73734;BMP280;62039;50.000;9.064;2022-11-15T09:53:58;99811.75;;;11.34
73734;BMP280;62039;50.000;9.064;2022-11-15T09:56:46;99812.22;;;11.37
73734;BMP280;62039;50.000;9.064;2022-11-15T09:59:24;99809.88;;;11.43
73734;BMP280;62039;50.000;9.064;2022-11-15T10:01:59;99801.69;;;11.46
73734;BMP280;62039;50.000;9.064;2022-11-15T10:04:26;99808.38;;;11.48
73734;BMP280;62039;50.000;9.064;2022-11-15T10:06:59;99798.38;;;11.52
73734;BMP280;62039;50.000;9.064;2022-11-15T10:09:31;99799.63;;;11.56
73734;BMP280;62039;50.000;9.064;2022-11-15T10:12:00;99798.28;;;11.60
73734;BMP280;62039;50.000;9.064;2022-11-15T10:14:30;99787.47;;;11.63
73734;BMP280;62039;50.000;9.064;2022-11-15T10:17:10;99787.94;;;11.66
73734;BMP280;62039;50.000;9.064;2022-11-15T10:19:49;99782.72;;;11.66
73734;BMP280;62039;50.000;9.064;2022-11-15T10:22:35;99783.50;;;11.67
73734;BMP280;62039;50.000;9.064;2022-11-15T10:25:15;99776.28;;;11.69
73734;BMP280;62039;50.000;9.064;2022-11-15T10:27:44;99785.41;;;11.73
73734;BMP280;62039;50.000;9.064;2022-11-15T10:30:15;99772.59;;;11.78
73734;BMP280;62039;50.000;9.064;2022-11-15T10:32:43;99772.84;;;11.83
73734;BMP280;62039;50.000;9.064;2022-11-15T10:35:19;99767.28;;;11.86
73734;BMP280;62039;50.000;9.064;2022-11-15T10:37:46;99763.47;;;11.89
73734;BMP280;62039;50.000;9.064;2022-11-15T10:40:20;99762.94;;;11.93
73734;BMP280;62039;50.000;9.064;2022-11-15T10:42:48;99759.94;;;11.96
73734;BMP280;62039;50.000;9.064;2022-11-15T10:45:30;99750.72;;;12.00
73734;BMP280;62039;50.000;9.064;2022-11-15T10:48:23;99750.72;;;12.00
73734;BMP280;62039;50.000;9.064;2022-11-15T10:50:51;99748.38;;;12.05
73734;BMP280;62039;50.000;9.064;2022-11-15T10:53:23;99750.63;;;12.08
73734;BMP280;62039;50.000;9.064;2022-11-15T10:55:53;99744.38;;;12.09
73734;BMP280;62039;50.000;9.064;2022-11-15T10:58:31;99742.41;;;12.11
73734;BMP280;62039;50.000;9.064;2022-11-15T11:01:11;99737.59;;;12.15
73734;BMP280;62039;50.000;9.064;2022-11-15T11:03:40;99740.69;;;12.18
73734;BMP280;62039;50.000;9.064;2022-11-15T11:06:09;99736.50;;;12.24
73734;BMP280;62039;50.000;9.064;2022-11-15T11:08:36;99729.28;;;12.26
73734;BMP280;62039;50.000;9.064;2022-11-15T11:11:04;99724.47;;;12.30
73734;BMP280;62039;50.000;9.064;2022-11-15T11:13:33;99725.47;;;12.29
73734;BMP280;62039;50.000;9.064;2022-11-15T11:16:15;99722.66;;;12.30
73734;BMP280;62039;50.000;9.064;2022-11-15T11:18:49;99719.06;;;12.31
73734;BMP280;62039;50.000;9.064;2022-11-15T11:21:23;99716.44;;;12.31
73734;BMP280;62039;50.000;9.064;2022-11-15T11:24:06;99723.31;;;12.32
73734;BMP280;62039;50.000;9.064;2022-11-15T11:26:40;99706.78;;;12.32
73734;BMP280;62039;50.000;9.064;2022-11-15T11:29:20;99713.81;;;12.31
73734;BMP280;62039;50.000;9.064;2022-11-15T11:31:59;99709.56;;;12.30
73734;BMP280;62039;50.000;9.064;2022-11-15T11:34:36;99706.16;;;12.30
73734;BMP280;62039;50.000;9.064;2022-11-15T11:37:12;99704.16;;;12.32
73734;BMP280;62039;50.000;9.064;2022-11-15T11:39:48;99696.16;;;12.33
73734;BMP280;62039;50.000;9.064;2022-11-15T11:42:26;99693.31;;;12.35
73734;BMP280;62039;50.000;9.064;2022-11-15T11:45:02;99684.31;;;12.37
73734;BMP280;62039;50.000;9.064;2022-11-15T11:47:38;99682.31;;;12.39
73734;BMP280;62039;50.000;9.064;2022-11-15T11:50:11;99684.72;;;12.41
73734;BMP280;62039;50.000;9.064;2022-11-15T11:52:43;99679.13;;;12.44
73734;BMP280;62039;50.000;9.064;2022-11-15T11:55:14;99670.28;;;12.45
73734;BMP280;62039;50.000;9.064;2022-11-15T11:57:46;99668.88;;;12.49
73734;BMP280;62039;50.000;9.064;2022-11-15T12:00:17;99666.72;;;12.52
73734;BMP280;62039;50.000;9.064;2022-11-15T12:02:50;99657.09;;;12.60
73734;BMP280;62039;50.000;9.064;2022-11-15T12:05:25;99645.22;;;12.64
73734;BMP280;62039;50.000;9.064;2022-11-15T12:07:56;99639.41;;;12.68
73734;BMP280;62039;50.000;9.064;2022-11-15T12:10:30;99639.03;;;12.71
73734;BMP280;62039;50.000;9.064;2022-11-15T12:13:02;99635.84;;;12.76
73734;BMP280;62039;50.000;9.064;2022-11-15T12:15:32;99626.63;;;12.80
73734;BMP280;62039;50.000;9.064;2022-11-15T12:18:04;99623.22;;;12.86
73734;BMP280;62039;50.000;9.064;2022-11-15T12:20:34;99624.91;;;12.93
73734;BMP280;62039;50.000;9.064;2022-11-15T12:23:05;99622.31;;;13.00
73734;BMP280;62039;50.000;9.064;2022-11-15T12:25:46;99607.22;;;13.09
73734;BMP280;62039;50.000;9.064;2022-11-15T12:28:19;99611.97;;;13.20
73734;BMP280;62039;50.000;9.064;2022-11-15T12:30:51;99594.69;;;13.32
73734;BMP280;62039;50.000;9.064;2022-11-15T12:33:35;99601.97;;;13.43
73734;BMP280;62039;50.000;9.064;2022-11-15T12:36:03;99597.19;;;13.53
73734;BMP280;62039;50.000;9.064;2022-11-15T12:38:51;99597.59;;;13.63
73734;BMP280;62039;50.000;9.064;2022-11-15T12:41:19;99595.44;;;13.73
73734;BMP280;62039;50.000;9.064;2022-11-15T12:43:47;99600.09;;;13.85
73734;BMP280;62039;50.000;9.064;2022-11-15T12:46:21;99593.66;;;13.94
73734;BMP280;62039;50.000;9.064;2022-11-15T12:48:55;99588.25;;;14.02
73734;BMP280;62039;50.000;9.064;2022-11-15T12:55:01;99581.19;;;14.22
73734;BMP280;62039;50.000;9.064;2022-11-15T12:57:36;99574.53;;;14.33
73734;BMP280;62039;50.000;9.064;2022-11-15T13:03:18;99569.88;;;14.55
73734;BMP280;62039;50.000;9.064;2022-11-15T13:05:59;99574.50;;;14.66
73734;BMP280;62039;50.000;9.064;2022-11-15T13:08:45;99565.81;;;14.78
73734;BMP280;62039;50.000;9.064;2022-11-15T13:11:46;99567.19;;;14.94
73734;BMP280;62039;50.000;9.064;2022-11-15T13:14:49;99557.84;;;15.05
73734;BMP280;62039;50.000;9.064;2022-11-15T13:17:26;99556.97;;;15.17
73734;BMP280;62039;50.000;9.064;2022-11-15T13:19:58;99561.81;;;15.27
73734;BMP280;62039;50.000;9.064;2022-11-15T13:22:25;99550.25;;;15.35
73734;BMP280;62039;50.000;9.064;2022-11-15T13:24:52;99551.41;;;15.45
73734;BMP280;62039;50.000;9.064;2022-11-15T13:27:20;99548.56;;;15.53
73734;BMP280;62039;50.000;9.064;2022-11-15T13:29:47;99541.44;;;15.60
73734;BMP280;62039;50.000;9.064;2022-11-15T13:32:15;99531.88;;;15.66
73734;BMP280;62039;50.000;9.064;2022-11-15T13:34:44;99534.66;;;15.71
73734;BMP280;62039;50.000;9.064;2022-11-15T13:37:29;99536.28;;;15.72
73734;BMP280;62039;50.000;9.064;2022-11-15T13:40:10;99533.06;;;15.70
73734;BMP280;62039;50.000;9.064;2022-11-15T13:42:43;99526.19;;;15.69
73734;BMP280;62039;50.000;9.064;2022-11-15T13:45:13;99528.03;;;15.68
73734;BMP280;62039;50.000;9.064;2022-11-15T13:47:41;99520.53;;;15.65
73734;BMP280;62039;50.000;9.064;2022-11-15T13:50:10;99520.16;;;15.62
73734;BMP280;62039;50.000;9.064;2022-11-15T13:52:40;99517.13;;;15.58
73734;BMP280;62039;50.000;9.064;2022-11-15T13:55:10;99506.03;;;15.56
73734;BMP280;62039;50.000;9.064;2022-11-15T13:57:42;99507.25;;;15.54
73734;BMP280;62039;50.000;9.064;2022-11-15T14:00:26;99505.84;;;15.51
73734;BMP280;62039;50.000;9.064;2022-11-15T14:02:53;99501.81;;;15.49
73734;BMP280;62039;50.000;9.064;2022-11-15T14:05:22;99502.84;;;15.48
73734;BMP280;62039;50.000;9.064;2022-11-15T14:07:53;99497.16;;;15.44
73734;BMP280;62039;50.000;9.064;2022-11-15T14:10:27;99488.28;;;15.39
73734;BMP280;62039;50.000;9.064;2022-11-15T14:12:56;99496.00;;;15.34
73734;BMP280;62039;50.000;9.064;2022-11-15T14:15:29;99487.94;;;15.28
73734;BMP280;62039;50.000;9.064;2022-11-15T14:17:56;99479.88;;;15.23
73734;BMP280;62039;50.000;9.064;2022-11-15T14:20:31;99477.06;;;15.18
73734;BMP280;62039;50.000;9.064;2022-11-15T14:23:00;99470.81;;;15.13
73734;BMP280;62039;50.000;9.064;2022-11-15T14:25:27;99468.22;;;15.06
73734;BMP280;62039;50.000;9.064;2022-11-15T14:28:28;99467.44;;;14.99
73734;BMP280;62039;50.000;9.064;2022-11-15T14:30:57;99462.81;;;14.95
73734;BMP280;62039;50.000;9.064;2022-11-15T14:33:27;99452.91;;;14.90
73734;BMP280;62039;50.000;9.064;2022-11-15T14:35:55;99451.13;;;14.84
73734;BMP280;62039;50.000;9.064;2022-11-15T14:38:22;99451.97;;;14.78
73734;BMP280;62039;50.000;9.064;2022-11-15T14:40:49;99449.16;;;14.73